Latest Weather Observations for Clare

IDS60801

Issued at 8:05 pm CDT Friday 24 October 2014 (issued every 30 minutes, with the page automatically refreshed every 10 minutes)

About weather observations | Map of weather stations | Latest weather observations for SA | Other Formats
Station Details ID: 021131 Name: CLARE HIGH SCHOOL Lat: -33.82 Lon: 138.59 Height: 395.0 m
Data from the previous 72 hours. | See also: Recent months at Clare
Date/Time
CDT
Temp
°C
App
Temp
°C
Dew
Point
Rel
Hum
%
Delta-T
°C
Wind Press
QNH
hPa
Press
MSL
hPa
Rain
since 9 am
mm
Dir
 
Spd
km/h
Gust
km/h
Spd
kts
Gust
kts
24/08:00pm 25.2 22.0 4.9 27 10.4 S 11 22 6 12 1014.3 - 0.0
24/07:30pm 27.7 24.8 4.7 23 12.0 SW 9 15 5 8 1014.0 - 0.0
24/07:00pm 31.2 28.6 3.3 17 14.5 W 6 11 3 6 1013.7 - 0.0
24/06:30pm 32.0 28.3 2.1 15 15.3 NW 11 15 6 8 1013.4 - 0.0
24/06:00pm 32.6 28.6 0.6 13 16.0 W 11 22 6 12 1013.5 1013.0 0.0
24/05:30pm 32.8 28.6 1.8 14 15.8 W 13 19 7 10 1013.4 - 0.0
24/05:00pm 32.6 27.9 0.6 13 16.0 W 15 24 8 13 1013.5 - 0.0
24/04:30pm 32.7 27.4 -0.4 12 16.3 W 17 28 9 15 1013.6 - 0.0
24/04:00pm 33.0 27.2 -1.4 11 16.7 WNW 19 28 10 15 1013.8 - 0.0
24/03:30pm 33.2 27.6 0.0 12 16.5 WNW 19 32 10 17 1014.0 - 0.0
24/03:00pm 33.3 27.7 0.1 12 16.5 W 19 28 10 15 1014.1 1013.6 0.0
24/02:30pm 32.4 28.0 0.5 13 15.9 W 13 30 7 16 1014.4 - 0.0
24/02:00pm 32.7 28.1 1.7 14 15.8 W 15 26 8 14 1014.7 - 0.0
24/01:30pm 32.5 28.3 1.6 14 15.7 WNW 13 20 7 11 1015.0 - 0.0
24/01:00pm 31.9 27.9 3.0 16 15.0 WSW 13 20 7 11 1015.4 - 0.0
24/12:30pm 30.1 25.9 1.5 16 14.3 WNW 13 19 7 10 1015.7 - 0.0
24/12:00pm 29.5 25.4 4.2 20 13.2 WNW 15 20 8 11 1016.0 1015.5 0.0
24/11:30am 29.0 24.4 3.8 20 13.0 WNW 17 22 9 12 1016.3 - 0.0
24/11:00am 28.4 24.2 4.0 21 12.6 NW 15 28 8 15 1016.4 - 0.0
24/10:30am 27.8 22.9 4.2 22 12.2 W 19 24 10 13 1016.5 - 0.0
24/10:00am 27.7 24.0 4.7 23 12.0 NW 13 24 7 13 1016.5 - 0.0
24/09:30am 23.5 21.9 8.8 39 8.0 NNW 7 11 4 6 1016.4 - 0.0
24/09:00am 21.1 19.4 8.4 44 6.8 NNW 7 9 4 5 1016.1 1015.6 0.0
24/08:30am 19.5 18.1 8.8 50 5.7 NNW 6 7 3 4 1015.9 - 0.0
24/08:00am 17.1 16.1 9.0 59 4.3 NNE 4 7 2 4 1015.9 - 0.0
24/07:30am 13.6 13.8 10.6 82 1.6 CALM 0 0 0 0 1015.7 - 0.0
24/07:00am 11.8 11.7 9.5 86 1.2 CALM 0 0 0 0 1015.4 - 0.0
24/06:30am 11.9 11.9 9.8 87 1.1 CALM 0 0 0 0 1015.0 - 0.0
24/06:00am 12.4 12.5 10.0 85 1.3 CALM 0 0 0 0 1014.6 1014.1 0.0
24/05:30am 12.7 12.8 10.2 85 1.3 CALM 0 0 0 0 1014.2 - 0.0
24/05:00am 12.8 12.9 10.2 84 1.4 CALM 0 6 0 3 1014.3 - 0.0
24/04:30am 12.4 10.7 9.8 84 1.4 SE 9 13 5 7 1014.3 - 0.0
24/04:00am 11.8 11.8 9.7 87 1.1 CALM 0 0 0 0 1014.2 - 0.0
24/03:30am 11.4 11.4 9.8 90 0.8 CALM 0 0 0 0 1013.6 - 0.0
24/03:00am 11.2 11.1 9.3 88 1.0 CALM 0 6 0 3 1014.0 1013.5 0.0
24/02:30am 10.8 10.7 9.4 91 0.7 CALM 0 0 0 0 1015.0 - 0.0
24/02:00am 10.6 10.4 9.0 90 0.8 CALM 0 0 0 0 1015.5 - 0.0
24/01:30am 11.2 11.1 9.5 89 0.9 CALM 0 0 0 0 1015.9 - 0.0
24/01:00am 11.8 11.8 9.9 88 1.0 CALM 0 0 0 0 1016.1 - 0.0
24/12:30am 12.5 12.6 10.0 85 1.3 CALM 0 0 0 0 1016.4 - 0.0
24/12:00am 12.9 12.9 9.9 82 1.6 SSW 0 0 0 0 1016.6 1016.1 0.0
 
Date/Time
CDT
Temp
°C
App
Temp
°C
Dew
Point
Rel
Hum
%
Delta-T
°C
Wind Press
QNH
hPa
Press
MSL
hPa
Rain
since 9 am
mm
Dir
 
Spd
km/h
Gust
km/h
Spd
kts
Gust
kts
23/11:30pm 13.6 13.7 10.2 80 1.8 CALM 0 0 0 0 1016.7 - 0.0
23/11:00pm 14.2 14.3 10.0 76 2.2 CALM 0 0 0 0 1016.9 - 0.0
23/10:30pm 14.9 15.0 10.1 73 2.6 CALM 0 0 0 0 1016.9 - 0.0
23/10:00pm 15.3 15.4 10.3 72 2.7 CALM 0 0 0 0 1017.2 - 0.0
23/09:30pm 16.3 16.5 10.4 68 3.2 CALM 0 0 0 0 1017.0 - 0.0
23/09:00pm 16.6 16.5 10.9 69 3.1 SSE 2 9 1 5 1016.7 1016.2 0.0
23/08:30pm 18.2 18.5 10.8 62 4.1 CALM 0 2 0 1 1016.4 - 0.0
23/08:00pm 19.4 18.1 11.2 59 4.6 S 9 13 5 7 1016.2 - 0.0
23/07:30pm 20.8 19.4 10.9 53 5.5 SSW 9 17 5 9 1016.0 - 0.0
23/07:00pm 22.1 20.2 10.6 48 6.4 SSW 11 19 6 10 1015.7 - 0.0
23/06:30pm 22.7 20.4 10.5 46 6.8 SW 13 20 7 11 1015.5 - 0.0
23/06:00pm 23.3 20.9 10.0 43 7.4 SSW 13 24 7 13 1015.1 1014.7 0.0
23/05:30pm 25.2 22.8 8.7 35 9.1 SSW 11 20 6 11 1014.8 - 0.0
23/05:00pm 25.2 21.9 8.2 34 9.3 SW 15 22 8 12 1014.9 - 0.0
23/04:30pm 26.0 22.3 8.0 32 9.8 S 17 22 9 12 1014.8 - 0.0
23/04:00pm 26.3 23.2 8.8 33 9.7 SW 15 22 8 12 1014.8 - 0.0
23/03:30pm 27.4 24.1 9.7 33 10.0 WSW 17 22 9 12 1014.7 - 0.0
23/03:00pm 27.0 24.3 8.9 32 10.1 WSW 13 24 7 13 1014.7 1014.3 0.0
23/02:30pm 26.7 25.0 7.7 30 10.3 SW 6 13 3 7 1015.0 - 0.0
23/02:00pm 26.2 24.5 7.7 31 10.0 W 6 15 3 8 1015.5 - 0.0
23/01:30pm 25.2 23.0 7.8 33 9.4 S 9 17 5 9 1015.9 - 0.0
23/01:00pm 24.3 22.3 8.7 37 8.5 SSW 9 20 5 11 1016.3 - 0.0
23/12:30pm 24.6 22.3 10.5 41 8.0 W 13 20 7 11 1016.6 - 0.0
23/12:00pm 23.6 21.5 11.0 45 7.1 SW 13 20 7 11 1017.1 1016.7 0.0
23/11:30am 23.3 21.7 11.4 47 6.8 SW 11 15 6 8 1017.1 - 0.0
23/11:00am 22.5 21.2 10.0 45 6.9 S 7 13 4 7 1017.4 - 0.0
23/10:30am 20.0 18.8 10.4 54 5.3 ENE 7 13 4 7 1017.4 - 0.0
23/10:00am 17.6 16.7 10.7 64 3.8 ENE 6 9 3 5 1017.7 - 0.0
23/09:30am 16.4 15.9 10.7 69 3.1 NNE 4 11 2 6 1018.1 - 0.0
23/09:00am 14.2 13.4 11.0 81 1.7 N 6 7 3 4 1018.5 1018.0 0.0
23/08:30am 12.6 12.9 10.8 89 1.0 CALM 0 6 0 3 1018.5 - 0.0
23/08:00am 11.7 10.8 10.8 94 0.5 ENE 6 7 3 4 1018.6 - 0.0
23/07:30am 11.8 10.9 11.5 98 0.2 E 7 9 4 5 1018.6 - 0.0
23/07:00am 11.9 11.7 11.7 99 0.1 SE 4 9 2 5 1018.3 - 0.0
23/06:30am 11.6 11.3 11.4 99 0.1 SE 4 7 2 4 1018.4 - 0.0
23/06:00am 11.7 12.2 11.5 99 0.1 CALM 0 6 0 3 1018.3 1017.8 0.0
23/05:30am 11.7 11.0 11.5 99 0.1 S 6 13 3 7 1017.7 - 0.0
23/05:00am 11.8 10.6 11.6 99 0.1 S 9 13 5 7 1017.7 - 0.0
23/04:30am 12.1 11.0 11.9 99 0.1 S 9 15 5 8 1017.6 - 0.0
23/04:00am 12.2 11.7 12.0 99 0.1 S 6 11 3 6 1017.3 - 0.0
23/03:30am 12.3 11.2 12.1 99 0.1 S 9 13 5 7 1017.5 - 0.0
23/03:00am 12.4 11.8 12.2 99 0.1 S 7 9 4 5 1017.8 1017.4 0.0
23/02:30am 12.6 12.0 12.4 99 0.1 S 7 13 4 7 1018.1 - 0.0
23/02:00am 12.7 12.2 12.5 99 0.1 S 7 11 4 6 1018.7 - 0.0
23/01:30am 12.8 12.3 12.6 99 0.1 SSE 7 11 4 6 1019.1 - 0.0
23/01:00am 12.8 12.5 12.6 99 0.1 SSE 6 9 3 5 1019.3 - 0.0
23/12:30am 12.9 13.0 12.7 99 0.1 SSE 4 9 2 5 1019.4 - 0.0
23/12:00am 13.1 12.8 12.6 97 0.3 SSE 6 9 3 5 1019.7 1019.3 0.0
 
Date/Time
CDT
Temp
°C
App
Temp
°C
Dew
Point
Rel
Hum
%
Delta-T
°C
Wind Press
QNH
hPa
Press
MSL
hPa
Rain
since 9 am
mm
Dir
 
Spd
km/h
Gust
km/h
Spd
kts
Gust
kts
22/11:30pm 13.4 12.9 12.6 95 0.4 S 7 9 4 5 1019.9 - 0.0
22/11:00pm 13.5 13.0 12.6 94 0.5 S 7 13 4 7 1020.0 - 0.0
22/10:30pm 13.5 12.9 12.4 93 0.6 S 7 13 4 7 1020.0 - 0.0
22/10:00pm 13.7 12.9 12.8 94 0.5 S 9 15 5 8 1020.2 - 0.0
22/09:30pm 13.8 12.6 12.9 94 0.5 S 11 19 6 10 1020.0 - 0.0
22/09:00pm 14.1 13.6 12.7 91 0.8 S 7 15 4 8 1019.8 1019.4 0.0
22/08:30pm 14.5 13.5 12.4 87 1.2 SSW 9 13 5 7 1019.6 - 0.0
22/08:00pm 15.6 15.0 12.4 81 1.8 SW 7 13 4 7 1019.2 - 0.0
22/07:30pm 17.0 15.6 12.3 74 2.6 SW 11 20 6 11 1018.8 - 0.0
22/07:00pm 18.9 17.1 12.2 65 3.8 SSW 13 22 7 12 1018.4 - 0.0
22/06:30pm 20.5 18.3 12.2 59 4.7 SW 15 24 8 13 1018.1 - 0.0
22/06:00pm 22.3 20.0 11.7 51 6.0 SW 15 26 8 14 1017.6 1017.2 0.0
22/05:30pm 24.0 20.4 9.9 41 7.9 SW 19 30 10 16 1017.6 - 0.0
22/05:00pm 24.9 21.7 8.4 35 9.0 SSW 15 24 8 13 1017.5 - 0.0
22/04:30pm 24.6 20.8 9.0 37 8.6 SSW 19 30 10 16 1017.6 - 0.0
22/04:00pm 24.5 20.3 9.6 39 8.3 SSW 22 37 12 20 1017.6 - 0.0
22/03:30pm 26.2 22.3 9.5 35 9.4 SW 20 35 11 19 1017.5 - 0.0
22/03:00pm 26.9 23.5 9.3 33 9.8 SSW 17 30 9 16 1017.5 1017.1 0.0
22/02:30pm 27.1 23.3 9.0 32 10.1 SSW 19 32 10 17 1017.6 - 0.0
22/02:00pm 26.7 22.6 8.6 32 10.0 SW 20 32 11 17 1017.8 - 0.0
22/01:30pm 27.2 23.2 9.1 32 10.1 WSW 20 35 11 19 1018.1 - 0.0
22/12:30pm 27.1 23.4 9.5 33 9.9 WSW 19 28 10 15 1018.2 - 0.0
22/12:00pm 27.9 24.6 8.2 29 10.9 WSW 15 22 8 12 1018.3 1017.8 0.0
22/11:30am 26.9 23.7 8.4 31 10.2 W 15 20 8 11 1018.5 - 0.0
22/11:00am 25.5 22.7 10.1 38 8.7 W 15 20 8 11 1018.7 - 0.0
22/10:30am 26.7 23.8 8.2 31 10.2 W 13 17 7 9 1018.7 - 0.0
22/10:00am 26.6 25.6 5.5 26 11.1 CALM 0 0 0 0 1018.6 - 0.0
22/09:30am 25.3 22.6 3.9 25 10.8 NNW 7 13 4 7 1018.5 - 0.0
22/09:00am 25.4 23.2 3.4 24 11.0 NNW 4 9 2 5 1018.3 1017.8 0.0
22/08:30am 24.2 22.9 4.0 27 10.1 CALM 0 0 0 0 1018.3 - 0.0
22/08:00am 22.3 20.3 6.9 37 8.1 SSW 7 15 4 8 1018.2 - 0.0
22/07:30am 18.2 17.4 6.4 46 6.0 CALM 0 0 0 0 1017.7 - 0.0
22/07:00am 17.7 16.6 5.0 43 6.2 CALM 0 0 0 0 1017.5 - 0.0
22/06:30am 17.3 16.2 5.3 45 5.9 CALM 0 0 0 0 1017.4 - 0.0
22/06:00am 16.8 15.4 3.5 41 6.3 CALM 0 0 0 0 1017.3 1016.9 0.0
22/05:30am 18.8 17.2 2.2 33 7.8 CALM 0 0 0 0 1016.9 - 0.0
22/05:00am 18.8 17.4 3.4 36 7.4 CALM 0 0 0 0 1016.7 - 0.0
22/04:30am 19.5 18.0 2.8 33 7.9 CALM 0 0 0 0 1016.6 - 0.0
22/04:00am 22.3 20.6 1.9 26 9.7 CALM 0 0 0 0 1016.7 - 0.0
22/03:30am 21.2 19.6 2.5 29 8.9 CALM 0 0 0 0 1016.8 - 0.0
22/03:00am 24.2 21.3 1.2 22 11.0 E 6 11 3 6 1017.1 1016.7 0.0
22/02:30am 27.1 21.9 0.0 17 12.9 ENE 17 32 9 17 1018.2 - 0.0
22/02:18am 25.6 18.0 0.3 19 12.0 N 30 56 16 30 1019.0 - 0.0
22/02:00am 23.9 21.0 1.5 23 10.7 ESE 6 9 3 5 1017.5 - 0.0
22/01:30am 23.8 20.8 2.0 24 10.5 ESE 7 11 4 6 1018.0 - 0.0
22/01:00am 23.7 20.7 2.0 24 10.5 ESE 7 11 4 6 1018.7 - 0.0
22/12:30am 24.3 21.2 1.2 22 11.0 ESE 7 11 4 6 1019.1 - 0.0
22/12:00am 25.5 22.3 0.9 20 11.8 SSE 7 9 4 5 1019.5 1019.1 0.0
 
Date/Time
CDT
Temp
°C
App
Temp
°C
Dew
Point
Rel
Hum
%
Delta-T
°C
Wind Press
QNH
hPa
Press
MSL
hPa
Rain
since 9 am
mm
Dir
 
Spd
km/h
Gust
km/h
Spd
kts
Gust
kts
21/11:30pm 27.0 23.9 -0.1 17 12.9 W 6 9 3 5 1019.8 - 0.0
21/11:00pm 29.0 23.9 -2.2 13 14.5 NNE 15 26 8 14 1019.4 - 0.0
21/10:30pm 30.5 24.9 -3.3 11 15.6 N 17 24 9 13 1019.4 - 0.0
21/10:00pm 28.3 24.5 -0.8 15 13.8 ENE 9 15 5 8 1019.4 - 0.0
21/09:30pm 30.7 27.0 -4.4 10 15.9 E 6 13 3 7 1019.7 - 0.0
21/09:07pm 30.5 22.4 -3.3 11 15.6 N 30 67 16 36 1020.1 - 0.0
21/09:00pm 27.6 24.4 -0.5 16 13.3 ENE 6 20 3 11 1019.6 1019.2 0.0
21/08:30pm 28.1 24.8 -0.1 16 13.5 E 7 11 4 6 1019.1 - 0.0

Other Formats:

Comma delimited format used in spreadsheet applications
http://www.bom.gov.au/fwo/IDS60801/IDS60801.95667.axf

JavaScript Object Notation format (JSON) in row-major order
http://www.bom.gov.au/fwo/IDS60801/IDS60801.95667.json